sensor_id;sensor_type;location;lat;lon;timestamp;pressure;altitude;pressure_sealevel;temperature;humidity
55077;BME280;40971;44.702;11.030;2023-07-09T00:04:46;101803.75;;;20.92;86.17
55077;BME280;40971;44.702;11.030;2023-07-09T00:14:50;101803.75;;;20.79;85.73
55077;BME280;40971;44.702;11.030;2023-07-09T00:24:53;101822.75;;;20.37;87.25
55077;BME280;40971;44.702;11.030;2023-07-09T00:34:59;101809.31;;;20.23;88.72
55077;BME280;40971;44.702;11.030;2023-07-09T00:45:01;101809.03;;;20.46;88.47
55077;BME280;40971;44.702;11.030;2023-07-09T00:55:12;101814.75;;;20.43;87.72
55077;BME280;40971;44.702;11.030;2023-07-09T01:05:15;101805.16;;;20.14;88.08
55077;BME280;40971;44.702;11.030;2023-07-09T01:15:19;101812.16;;;20.15;88.48
55077;BME280;40971;44.702;11.030;2023-07-09T01:25:20;101819.03;;;19.97;88.44
55077;BME280;40971;44.702;11.030;2023-07-09T01:35:22;101817.97;;;19.85;89.54
55077;BME280;40971;44.702;11.030;2023-07-09T01:45:27;101816.41;;;19.69;91.39
55077;BME280;40971;44.702;11.030;2023-07-09T01:55:30;101815.97;;;19.59;91.97
55077;BME280;40971;44.702;11.030;2023-07-09T02:05:35;101811.25;;;19.61;91.45
55077;BME280;40971;44.702;11.030;2023-07-09T02:15:38;101819.25;;;19.61;90.73
55077;BME280;40971;44.702;11.030;2023-07-09T02:25:43;101821.38;;;19.44;90.41
55077;BME280;40971;44.702;11.030;2023-07-09T02:35:48;101833.19;;;19.63;90.82
55077;BME280;40971;44.702;11.030;2023-07-09T02:45:50;101849.03;;;19.64;89.97
55077;BME280;40971;44.702;11.030;2023-07-09T02:55:53;101848.66;;;19.67;89.99
55077;BME280;40971;44.702;11.030;2023-07-09T03:05:55;101858.59;;;19.52;90.68
55077;BME280;40971;44.702;11.030;2023-07-09T03:15:58;101855.59;;;19.41;90.06
55077;BME280;40971;44.702;11.030;2023-07-09T03:26:01;101868.50;;;19.37;89.84
55077;BME280;40971;44.702;11.030;2023-07-09T03:36:04;101864.13;;;19.08;90.09
55077;BME280;40971;44.702;11.030;2023-07-09T03:46:06;101874.66;;;18.95;90.57
55077;BME280;40971;44.702;11.030;2023-07-09T03:56:07;101857.25;;;18.99;90.96
55077;BME280;40971;44.702;11.030;2023-07-09T04:06:09;101873.69;;;19.24;91.18
55077;BME280;40971;44.702;11.030;2023-07-09T04:16:12;101868.03;;;19.55;90.93
55077;BME280;40971;44.702;11.030;2023-07-09T04:26:14;101870.41;;;19.99;90.00
55077;BME280;40971;44.702;11.030;2023-07-09T04:36:18;101876.56;;;20.33;89.45
55077;BME280;40971;44.702;11.030;2023-07-09T04:46:20;101889.56;;;20.50;89.21
55077;BME280;40971;44.702;11.030;2023-07-09T04:56:24;101900.59;;;20.81;90.35
55077;BME280;40971;44.702;11.030;2023-07-09T05:06:25;101898.63;;;21.22;89.30
55077;BME280;40971;44.702;11.030;2023-07-09T05:16:28;101903.59;;;21.52;86.12
55077;BME280;40971;44.702;11.030;2023-07-09T05:26:30;101909.16;;;21.76;85.99
55077;BME280;40971;44.702;11.030;2023-07-09T05:36:32;101911.84;;;22.02;85.65
55077;BME280;40971;44.702;11.030;2023-07-09T05:46:36;101923.69;;;22.33;82.43
55077;BME280;40971;44.702;11.030;2023-07-09T05:56:37;101923.00;;;22.50;80.36
55077;BME280;40971;44.702;11.030;2023-07-09T06:06:41;101936.25;;;22.90;79.07
55077;BME280;40971;44.702;11.030;2023-07-09T06:16:43;101944.94;;;23.23;77.17
55077;BME280;40971;44.702;11.030;2023-07-09T06:26:45;101940.66;;;23.53;75.89
55077;BME280;40971;44.702;11.030;2023-07-09T06:36:47;101933.56;;;23.84;73.61
55077;BME280;40971;44.702;11.030;2023-07-09T06:46:49;101938.56;;;24.41;70.83
55077;BME280;40971;44.702;11.030;2023-07-09T06:56:50;101925.41;;;25.29;69.18
55077;BME280;40971;44.702;11.030;2023-07-09T07:06:53;101925.84;;;26.65;65.37
55077;BME280;40971;44.702;11.030;2023-07-09T07:16:58;101916.28;;;27.81;58.52
55077;BME280;40971;44.702;11.030;2023-07-09T07:27:04;101928.66;;;28.75;54.02
55077;BME280;40971;44.702;11.030;2023-07-09T07:37:07;101919.88;;;29.85;52.16
55077;BME280;40971;44.702;11.030;2023-07-09T07:47:10;101912.94;;;30.61;48.67
55077;BME280;40971;44.702;11.030;2023-07-09T07:57:12;101918.25;;;31.23;48.26
55077;BME280;40971;44.702;11.030;2023-07-09T08:07:18;101918.72;;;32.06;46.73
55077;BME280;40971;44.702;11.030;2023-07-09T08:17:21;101923.06;;;32.71;43.50
55077;BME280;40971;44.702;11.030;2023-07-09T08:27:24;101908.41;;;33.11;42.31
55077;BME280;40971;44.702;11.030;2023-07-09T08:37:25;101920.41;;;32.51;43.68
55077;BME280;40971;44.702;11.030;2023-07-09T08:58:05;101912.56;;;32.93;44.70
55077;BME280;40971;44.702;11.030;2023-07-09T09:08:40;101919.47;;;34.90;38.26
55077;BME280;40971;44.702;11.030;2023-07-09T09:18:40;101919.47;;;35.41;37.34
55077;BME280;40971;44.702;11.030;2023-07-09T09:28:43;101918.00;;;34.79;37.07
55077;BME280;40971;44.702;11.030;2023-07-09T09:38:44;101926.47;;;33.64;39.54
55077;BME280;40971;44.702;11.030;2023-07-09T09:48:54;101923.59;;;34.88;40.44
55077;BME280;40971;44.702;11.030;2023-07-09T09:58:57;101912.25;;;35.78;38.14
55077;BME280;40971;44.702;11.030;2023-07-09T10:09:41;101913.53;;;36.12;35.49
55077;BME280;40971;44.702;11.030;2023-07-09T10:19:56;101914.41;;;36.08;33.03
55077;BME280;40971;44.702;11.030;2023-07-09T10:40:25;101914.94;;;36.24;36.45
55077;BME280;40971;44.702;11.030;2023-07-09T10:50:36;101906.97;;;37.52;33.96
55077;BME280;40971;44.702;11.030;2023-07-09T11:00:41;101906.84;;;37.57;32.85
55077;BME280;40971;44.702;11.030;2023-07-09T11:10:55;101882.78;;;37.54;33.56
55077;BME280;40971;44.702;11.030;2023-07-09T11:21:05;101874.03;;;35.86;34.18
55077;BME280;40971;44.702;11.030;2023-07-09T11:31:20;101873.34;;;35.35;35.50
55077;BME280;40971;44.702;11.030;2023-07-09T11:51:40;101863.13;;;36.85;32.82
55077;BME280;40971;44.702;11.030;2023-07-09T12:01:47;101856.81;;;37.60;35.63
55077;BME280;40971;44.702;11.030;2023-07-09T12:11:51;101844.00;;;37.16;31.54
55077;BME280;40971;44.702;11.030;2023-07-09T12:21:57;101835.31;;;36.78;35.07
55077;BME280;40971;44.702;11.030;2023-07-09T12:32:10;101815.06;;;36.30;34.76
55077;BME280;40971;44.702;11.030;2023-07-09T12:42:19;101805.56;;;37.95;33.92
55077;BME280;40971;44.702;11.030;2023-07-09T12:52:22;101785.22;;;36.86;32.55
55077;BME280;40971;44.702;11.030;2023-07-09T13:02:28;101797.66;;;36.92;33.39
55077;BME280;40971;44.702;11.030;2023-07-09T13:12:38;101784.97;;;36.52;32.44
55077;BME280;40971;44.702;11.030;2023-07-09T13:22:41;101776.94;;;37.87;34.03
55077;BME280;40971;44.702;11.030;2023-07-09T13:32:48;101765.41;;;36.45;35.51
55077;BME280;40971;44.702;11.030;2023-07-09T13:42:50;101756.75;;;37.92;34.67
55077;BME280;40971;44.702;11.030;2023-07-09T13:52:53;101742.50;;;37.81;34.41
55077;BME280;40971;44.702;11.030;2023-07-09T14:02:55;101748.72;;;36.77;36.41
55077;BME280;40971;44.702;11.030;2023-07-09T14:12:57;101736.47;;;37.45;31.03
55077;BME280;40971;44.702;11.030;2023-07-09T14:23:01;101737.13;;;37.50;31.04
55077;BME280;40971;44.702;11.030;2023-07-09T14:33:07;101730.28;;;36.25;37.46
55077;BME280;40971;44.702;11.030;2023-07-09T14:43:10;101723.03;;;37.34;35.75
55077;BME280;40971;44.702;11.030;2023-07-09T14:53:24;101713.28;;;37.68;30.52
55077;BME280;40971;44.702;11.030;2023-07-09T15:03:27;101702.81;;;36.38;33.77
55077;BME280;40971;44.702;11.030;2023-07-09T15:13:34;101700.41;;;36.14;32.61
55077;BME280;40971;44.702;11.030;2023-07-09T15:23:40;101685.63;;;37.56;34.04
55077;BME280;40971;44.702;11.030;2023-07-09T15:33:43;101677.72;;;37.46;30.77
55077;BME280;40971;44.702;11.030;2023-07-09T15:43:45;101673.72;;;37.77;36.34
55077;BME280;40971;44.702;11.030;2023-07-09T15:53:46;101665.31;;;37.82;42.01
55077;BME280;40971;44.702;11.030;2023-07-09T16:03:50;101655.44;;;38.24;37.26
55077;BME280;40971;44.702;11.030;2023-07-09T16:13:53;101643.34;;;36.61;32.22
55077;BME280;40971;44.702;11.030;2023-07-09T16:23:56;101634.88;;;36.71;38.23
55077;BME280;40971;44.702;11.030;2023-07-09T16:33:58;101626.31;;;36.72;35.61
55077;BME280;40971;44.702;11.030;2023-07-09T16:44:00;101639.38;;;35.78;36.95
55077;BME280;40971;44.702;11.030;2023-07-09T16:54:02;101626.09;;;35.72;40.93
55077;BME280;40971;44.702;11.030;2023-07-09T17:04:25;101620.84;;;35.26;34.79
55077;BME280;40971;44.702;11.030;2023-07-09T17:14:28;101625.69;;;34.74;37.86
55077;BME280;40971;44.702;11.030;2023-07-09T17:24:31;101623.06;;;34.83;49.21
55077;BME280;40971;44.702;11.030;2023-07-09T17:34:32;101616.56;;;34.65;47.36
55077;BME280;40971;44.702;11.030;2023-07-09T17:44:37;101614.66;;;34.20;53.27
55077;BME280;40971;44.702;11.030;2023-07-09T17:54:39;101623.03;;;33.72;55.50
55077;BME280;40971;44.702;11.030;2023-07-09T18:04:43;101621.16;;;33.07;54.60
55077;BME280;40971;44.702;11.030;2023-07-09T18:14:49;101618.66;;;32.29;60.78
55077;BME280;40971;44.702;11.030;2023-07-09T18:24:52;101640.88;;;31.63;57.65
55077;BME280;40971;44.702;11.030;2023-07-09T18:34:55;101642.13;;;31.22;62.53
55077;BME280;40971;44.702;11.030;2023-07-09T18:44:58;101633.84;;;30.33;69.16
55077;BME280;40971;44.702;11.030;2023-07-09T18:55:00;101635.13;;;29.65;71.94
55077;BME280;40971;44.702;11.030;2023-07-09T19:05:15;101644.97;;;28.72;76.03
55077;BME280;40971;44.702;11.030;2023-07-09T19:15:20;101632.72;;;28.33;71.37
55077;BME280;40971;44.702;11.030;2023-07-09T19:25:26;101659.16;;;28.25;65.26
55077;BME280;40971;44.702;11.030;2023-07-09T19:35:30;101670.31;;;28.34;64.92
55077;BME280;40971;44.702;11.030;2023-07-09T19:45:37;101669.69;;;28.22;63.12
55077;BME280;40971;44.702;11.030;2023-07-09T19:55:41;101695.53;;;27.86;63.85
55077;BME280;40971;44.702;11.030;2023-07-09T20:05:42;101708.22;;;27.86;62.27
55077;BME280;40971;44.702;11.030;2023-07-09T20:15:44;101703.09;;;27.41;64.63
55077;BME280;40971;44.702;11.030;2023-07-09T20:25:47;101712.09;;;27.30;64.21
55077;BME280;40971;44.702;11.030;2023-07-09T20:35:51;101712.97;;;27.13;65.34
55077;BME280;40971;44.702;11.030;2023-07-09T20:45:55;101708.06;;;26.94;66.66
55077;BME280;40971;44.702;11.030;2023-07-09T20:56:00;101714.25;;;26.78;65.67
55077;BME280;40971;44.702;11.030;2023-07-09T21:06:01;101712.63;;;26.60;65.00
55077;BME280;40971;44.702;11.030;2023-07-09T21:16:17;101723.56;;;26.37;66.04
55077;BME280;40971;44.702;11.030;2023-07-09T21:26:21;101733.38;;;26.43;62.49
55077;BME280;40971;44.702;11.030;2023-07-09T21:36:23;101739.09;;;26.30;62.71
55077;BME280;40971;44.702;11.030;2023-07-09T21:46:27;101758.66;;;25.85;64.21
55077;BME280;40971;44.702;11.030;2023-07-09T21:56:30;101749.94;;;25.55;65.01
55077;BME280;40971;44.702;11.030;2023-07-09T22:06:31;101759.41;;;25.58;64.56
55077;BME280;40971;44.702;11.030;2023-07-09T22:16:33;101758.47;;;25.52;64.07
55077;BME280;40971;44.702;11.030;2023-07-09T22:26:35;101759.53;;;25.28;65.75
55077;BME280;40971;44.702;11.030;2023-07-09T22:36:38;101752.28;;;25.05;65.94
55077;BME280;40971;44.702;11.030;2023-07-09T22:46:42;101776.34;;;24.88;67.45
55077;BME280;40971;44.702;11.030;2023-07-09T22:56:45;101777.56;;;24.63;69.72
55077;BME280;40971;44.702;11.030;2023-07-09T23:06:50;101783.88;;;24.09;76.86
55077;BME280;40971;44.702;11.030;2023-07-09T23:16:52;101774.72;;;23.80;77.94
55077;BME280;40971;44.702;11.030;2023-07-09T23:26:57;101783.00;;;23.60;79.08
55077;BME280;40971;44.702;11.030;2023-07-09T23:37:00;101789.75;;;23.20;82.94
55077;BME280;40971;44.702;11.030;2023-07-09T23:47:09;101782.78;;;22.88;84.82
55077;BME280;40971;44.702;11.030;2023-07-09T23:57:12;101793.88;;;22.67;82.41
